Aviation Digital Data Service (ADDS)

Output produced by METARs form (1132 UTC 23 June 2021)
found at http://www.aviationweather.gov/metar/data/
 
METAR text: KANK 231115Z AUTO 29005KT 10SM CLR 14/M06 A3027 RMK AO1 T01411057
Conditions at: KANK (SALIDA , CO, US) observed 1115 UTC 23 June 2021
Temperature: 14.1°C (57°F)
Dewpoint: -5.7°C (22°F) [RH = 25%]
Pressure (altimeter): 30.27 inches Hg (1025.1 mb)
Winds: from the WNW (290 degrees) at 6 MPH (5 knots; 2.6 m/s)
Visibility: 10 or more miles (16+ km)
Ceiling: at least 12,000 feet AGL
Clouds: sky clear below 12,000 feet AGL
Weather: automated observation with no human augmentation;
there may or may not be significant weather present at this time

METAR text: KANK 231055Z AUTO 30006KT 10SM CLR 15/M06 A3027 RMK AO1 T01451062
Conditions at: KANK (SALIDA , CO, US) observed 1055 UTC 23 June 2021
Temperature: 14.5°C (58°F)
Dewpoint: -6.2°C (21°F) [RH = 23%]
Pressure (altimeter): 30.27 inches Hg (1025.1 mb)
Winds: from the WNW (300 degrees) at 7 MPH (6 knots; 3.1 m/s)
Visibility: 10 or more miles (16+ km)
Ceiling: at least 12,000 feet AGL
Clouds: sky clear below 12,000 feet AGL
Weather: automated observation with no human augmentation;
there may or may not be significant weather present at this time

METAR text: KANK 231035Z AUTO 00000KT 10SM CLR 14/M07 A3027 RMK AO1 T01441075
Conditions at: KANK (SALIDA , CO, US) observed 1035 UTC 23 June 2021
Temperature: 14.4°C (58°F)
Dewpoint: -7.5°C (18°F) [RH = 21%]
Pressure (altimeter): 30.27 inches Hg (1025.1 mb)
Winds: calm
Visibility: 10 or more miles (16+ km)
Ceiling: at least 12,000 feet AGL
Clouds: sky clear below 12,000 feet AGL
Weather: automated observation with no human augmentation;
there may or may not be significant weather present at this time